Crosby, ND

4:48 PM CST on November 23, 2017 (GMT -0600)
Crosby

Weather History for KD50 - April, 2013

Change the Weather History Date:

Wednesday, April 17, 2013

  Actual Average (KISN) Record (KISN)
Temperature  
Mean Temperature 22 °F -  
Max Temperature 28 °F 57 °F 83 °F (1994)
Min Temperature 15 °F 31 °F 12 °F (1970)
Degree Days  
Heating Degree Days 44    
Moisture  
Dew Point 20 °F    
Average Humidity 89    
Maximum Humidity 100    
Minimum Humidity 74    
Precipitation  
Precipitation 0.08 in - - ()
Sea Level Pressure  
Sea Level Pressure 30.30 in    
Wind  
Wind Speed 6 mph (NW)    
Max Wind Speed 12 mph    
Max Gust Speed -    
Visibility 9 miles    
Events Snow    
Averages and records for this station are not official NWS values.
T = Trace of Precipitation, MM = Missing Value Source: NWS Daily Summary

Daily Weather History Graph

Daily Weather History Graph

Search for Another Location

Airport or City:

Trip Planner

Search our weather history database for the weather conditions in past years. The results will help you decide how hot, cold, wet, or windy it might be!

Date:

Astronomy

Apr. 17, 2013 Rise Set
Actual Time 6:57 AM CDT 8:48 PM CDT
Civil Twilight 6:24 AM CDT 9:22 PM CDT
Nautical Twilight 5:42 AM CDT 10:03 PM CDT
Astronomical Twilight 4:57 AM CDT 10:50 PM CDT
Moon 12:03 PM CDT (4/17) 2:38 AM CDT (4/17)
Length of Visible Light 14h 58m
Length of Day
13h 50m
Waxing Crescent, 42% of the Moon is Illuminated
Apr 17
Waxing Crescent
Apr 18
First Quarter
Apr 25
Full
May 2
Last Quarter
May 9
New

Hourly Weather History & Observations

Time (CDT) Temp. Windchill Dew Point Humidity Pressure Visibility Wind Dir Wind Speed Gust Speed Precip Events Conditions
12:15 AM 24.8 °F 20.5 °F 21.2 °F 86% 30.36 in 10.0 mi SE 3.5 mph - N/A   Overcast
12:35 AM 24.8 °F 19.1 °F 21.2 °F 86% 30.36 in 10.0 mi SSE 4.6 mph - N/A   Overcast
12:55 AM 24.8 °F 19.1 °F 21.2 °F 86% 30.36 in 10.0 mi South 4.6 mph - N/A   Overcast
1:15 AM 24.8 °F 17.9 °F 21.2 °F 86% 30.36 in 10.0 mi SSE 5.8 mph - N/A   Overcast
1:35 AM 24.8 °F 19.1 °F 21.2 °F 86% 30.36 in 7.0 mi South 4.6 mph - N/A   Overcast
1:55 AM 24.8 °F 19.1 °F 23.0 °F 93% 30.37 in 3.0 mi SSW 4.6 mph - N/A   Overcast
2:15 AM 24.8 °F 19.1 °F 23.0 °F 93% 30.37 in 5.0 mi SSW 4.6 mph - N/A   Overcast
2:35 AM 24.8 °F 19.1 °F 23.0 °F 93% 30.36 in 9.0 mi SSW 4.6 mph - N/A   Mostly Cloudy
2:55 AM 23.0 °F 17.0 °F 23.0 °F 100% 30.36 in 9.0 mi SSW 4.6 mph - N/A   Overcast
3:15 AM 23.0 °F 18.4 °F 23.0 °F 100% 30.36 in 6.0 mi SW 3.5 mph - N/A   Overcast
3:35 AM 23.0 °F 17.0 °F 23.0 °F 100% 30.35 in 10.0 mi SW 4.6 mph - N/A   Overcast
3:55 AM 23.0 °F 17.0 °F 23.0 °F 100% 30.34 in 7.0 mi WSW 4.6 mph - N/A   Overcast
4:35 AM 23.0 °F 17.0 °F 21.2 °F 93% 30.34 in 10.0 mi West 4.6 mph - N/A   Mostly Cloudy
4:55 AM 23.0 °F 18.4 °F 21.2 °F 93% 30.34 in 10.0 mi WNW 3.5 mph - N/A   Overcast
5:15 AM 23.0 °F 15.8 °F 21.2 °F 93% 30.33 in 10.0 mi WNW 5.8 mph - N/A   Overcast
5:35 AM 23.0 °F 15.8 °F 23.0 °F 100% 30.33 in 6.0 mi WNW 5.8 mph - N/A Snow Light Snow
5:55 AM 23.0 °F 17.0 °F 23.0 °F 100% 30.33 in 3.0 mi NW 4.6 mph - 0.04 in Snow Light Snow
6:15 AM 21.2 °F 13.6 °F 21.2 °F 100% 30.32 in 6.0 mi NW 5.8 mph - N/A Snow Light Snow
6:35 AM 19.4 °F 10.4 °F 19.4 °F 100% 30.32 in 9.0 mi WNW 6.9 mph - 0.01 in Snow Light Snow
6:55 AM 19.4 °F 10.4 °F 19.4 °F 100% 30.32 in 5.0 mi NW 6.9 mph - 0.01 in Snow Light Snow
7:15 AM 17.6 °F 8.2 °F 17.6 °F 100% 30.32 in 8.0 mi NW 6.9 mph - N/A Snow Light Snow
7:35 AM 17.6 °F 8.2 °F 15.8 °F 93% 30.32 in 8.0 mi NW 6.9 mph - N/A Snow Light Snow
7:55 AM 17.6 °F 7.3 °F 15.8 °F 93% 30.32 in 8.0 mi NW 8.1 mph - N/A   Overcast
8:15 AM 19.4 °F 9.5 °F 17.6 °F 93% 30.32 in 8.0 mi NW 8.1 mph - N/A Snow Light Snow
8:35 AM 19.4 °F 9.5 °F 19.4 °F 100% 30.32 in 4.0 mi NW 8.1 mph - 0.01 in Snow Light Snow
8:55 AM 19.4 °F 9.5 °F 19.4 °F 100% 30.32 in 3.0 mi NW 8.1 mph - 0.03 in Snow Light Snow
9:15 AM 19.4 °F 10.4 °F 17.6 °F 93% 30.32 in 10.0 mi NW 6.9 mph - N/A   Mostly Cloudy
9:35 AM 19.4 °F 11.5 °F 17.6 °F 93% 30.31 in 10.0 mi NNW 5.8 mph - N/A   Partly Cloudy
9:55 AM 21.2 °F 13.6 °F 19.4 °F 93% 30.31 in 10.0 mi NNW 5.8 mph - N/A   Clear
10:15 AM 21.2 °F 13.6 °F 19.4 °F 93% 30.30 in 10.0 mi NNW 5.8 mph - N/A   Clear
10:35 AM 21.2 °F 12.6 °F 19.4 °F 93% 30.30 in 10.0 mi NW 6.9 mph - N/A   Clear
10:55 AM 23.0 °F 15.8 °F 19.4 °F 86% 30.31 in 10.0 mi NW 5.8 mph - N/A   Clear
11:15 AM 23.0 °F 14.7 °F 19.4 °F 86% 30.32 in 10.0 mi NW 6.9 mph - N/A   Clear
11:35 AM 24.8 °F 16.1 °F 21.2 °F 86% 30.32 in 10.0 mi NW 8.1 mph - N/A   Clear
11:55 AM 24.8 °F 16.1 °F 21.2 °F 86% 30.32 in 10.0 mi NNW 8.1 mph - N/A   Clear
12:15 PM 24.8 °F 17.9 °F 23.0 °F 93% 30.32 in 10.0 mi NNW 5.8 mph - N/A   Clear
12:35 PM 24.8 °F 19.1 °F 21.2 °F 86% 30.32 in 10.0 mi NNW 4.6 mph - N/A   Mostly Cloudy
12:55 PM 24.8 °F 17.9 °F 21.2 °F 86% 30.31 in 10.0 mi NNW 5.8 mph - N/A   Scattered Clouds
1:15 PM 26.6 °F 21.2 °F 23.0 °F 86% 30.31 in 10.0 mi NNW 4.6 mph - N/A   Scattered Clouds
1:35 PM 26.6 °F 20.0 °F 23.0 °F 86% 30.30 in 10.0 mi NNW 5.8 mph - N/A   Scattered Clouds
1:55 PM 26.6 °F 19.1 °F 23.0 °F 86% 30.29 in 10.0 mi NNW 6.9 mph - N/A   Clear
2:15 PM 26.6 °F 18.2 °F 23.0 °F 86% 30.29 in 10.0 mi NNW 8.1 mph - N/A   Scattered Clouds
2:35 PM 28.4 °F 20.4 °F 23.0 °F 80% 30.29 in 10.0 mi NNW 8.1 mph - N/A   Mostly Cloudy
2:55 PM 28.4 °F 19.7 °F 23.0 °F 80% 30.29 in 10.0 mi NNW 9.2 mph - N/A   Overcast
3:35 PM 26.6 °F 17.5 °F 23.0 °F 86% 30.29 in 10.0 mi NNW 9.2 mph - N/A   Partly Cloudy
3:55 PM 26.6 °F 16.8 °F 23.0 °F 86% 30.29 in 10.0 mi NNW 10.4 mph - N/A   Clear
4:15 PM 26.6 °F 16.8 °F 21.2 °F 80% 30.28 in 10.0 mi NNW 10.4 mph - N/A   Clear
4:35 PM 26.6 °F 16.8 °F 19.4 °F 74% 30.27 in 10.0 mi NNW 10.4 mph - N/A   Clear
4:55 PM 26.6 °F 16.8 °F 21.2 °F 80% 30.27 in 10.0 mi NW 10.4 mph - N/A   Clear
5:15 PM 26.6 °F 16.8 °F 21.2 °F 80% 30.27 in 10.0 mi NNW 10.4 mph - N/A   Clear
5:35 PM 26.6 °F 16.2 °F 21.2 °F 80% 30.26 in 10.0 mi NNW 11.5 mph - N/A   Clear
5:55 PM 26.6 °F 16.2 °F 21.2 °F 80% 30.26 in 10.0 mi NNW 11.5 mph - N/A   Clear
6:15 PM 26.6 °F 16.2 °F 21.2 °F 80% 30.26 in 10.0 mi NNW 11.5 mph - N/A   Clear
6:35 PM 26.6 °F 17.5 °F 21.2 °F 80% 30.26 in 10.0 mi NW 9.2 mph - N/A   Clear
6:55 PM 26.6 °F 16.8 °F 21.2 °F 80% 30.26 in 10.0 mi NW 10.4 mph - N/A   Clear
7:15 PM 26.6 °F 16.8 °F 21.2 °F 80% 30.26 in 10.0 mi NW 10.4 mph - N/A   Clear
7:35 PM 26.6 °F 16.2 °F 19.4 °F 74% 30.25 in 10.0 mi NW 11.5 mph - N/A   Clear
7:55 PM 24.8 °F 14.6 °F 19.4 °F 80% 30.25 in 10.0 mi NW 10.4 mph - N/A   Clear
8:15 PM 24.8 °F 15.3 °F 19.4 °F 80% 30.26 in 10.0 mi NNW 9.2 mph - N/A   Clear
8:35 PM 23.0 °F 11.7 °F 19.4 °F 86% 30.26 in 10.0 mi NNW 11.5 mph - N/A   Clear
8:55 PM 23.0 °F 12.4 °F 17.6 °F 80% 30.26 in 10.0 mi NW 10.4 mph - N/A   Clear
9:15 PM 21.2 °F 10.1 °F 15.8 °F 80% 30.26 in 10.0 mi NW 10.4 mph - N/A   Clear
9:35 PM 19.4 °F 8.6 °F 15.8 °F 86% 30.27 in 10.0 mi NW 9.2 mph - N/A   Clear
9:55 PM 19.4 °F 10.4 °F 15.8 °F 86% 30.27 in 10.0 mi WNW 6.9 mph - N/A   Clear
10:15 PM 19.4 °F 10.4 °F 15.8 °F 86% 30.28 in 10.0 mi WNW 6.9 mph - N/A   Clear
10:35 PM 19.4 °F 10.4 °F 15.8 °F 86% 30.27 in 10.0 mi WNW 6.9 mph - N/A   Clear
10:55 PM 15.8 °F 5.1 °F 14.0 °F 93% 30.27 in 10.0 mi WNW 8.1 mph - N/A   Clear
11:15 PM 17.6 °F 8.2 °F 15.8 °F 93% 30.26 in 10.0 mi WNW 6.9 mph - N/A   Clear
11:35 PM 17.6 °F 7.3 °F 14.0 °F 86% 30.26 in 10.0 mi WNW 8.1 mph - N/A   Clear
11:55 PM 17.6 °F 6.4 °F 15.8 °F 93% 30.25 in 10.0 mi WNW 9.2 mph - N/A   Clear